createdAt,value
2018-06-11T00:00:45.224Z,14.70
2018-06-11T00:01:50.641Z,14.60
2018-06-11T00:02:56.049Z,14.60
2018-06-11T00:04:01.928Z,14.50
2018-06-11T00:05:07.397Z,14.50
2018-06-11T00:06:12.833Z,14.50
2018-06-11T00:07:18.283Z,14.40
2018-06-11T00:08:23.767Z,14.40
2018-06-11T00:09:29.172Z,14.40
2018-06-11T00:10:34.645Z,14.40
2018-06-11T00:11:40.316Z,14.30
2018-06-11T00:12:45.715Z,14.30
2018-06-11T00:13:51.105Z,14.30
2018-06-11T00:16:01.542Z,14.30
2018-06-11T00:17:06.988Z,14.30
2018-06-11T00:18:12.458Z,14.20
2018-06-11T00:19:17.893Z,14.20
2018-06-11T00:20:23.434Z,14.20
2018-06-11T00:21:28.910Z,14.20
2018-06-11T00:22:34.577Z,14.20
2018-06-11T00:23:40.055Z,14.30
2018-06-11T00:24:45.445Z,14.30
2018-06-11T00:25:50.850Z,14.30
2018-06-11T00:26:56.281Z,14.30
2018-06-11T00:28:01.698Z,14.30
2018-06-11T00:29:07.647Z,14.30
2018-06-11T00:30:13.057Z,14.20
2018-06-11T00:31:18.476Z,14.20
2018-06-11T00:32:23.885Z,14.20
2018-06-11T00:33:29.278Z,14.20
2018-06-11T00:34:34.706Z,14.10
2018-06-11T00:35:40.106Z,14.10
2018-06-11T00:36:45.525Z,14.00
2018-06-11T00:37:50.949Z,13.90
2018-06-11T00:38:56.395Z,13.90
2018-06-11T00:40:02.153Z,13.90
2018-06-11T00:41:07.587Z,13.90
2018-06-11T00:42:13.070Z,13.80
2018-06-11T00:43:18.465Z,13.80
2018-06-11T00:44:23.988Z,13.80
2018-06-11T00:45:29.745Z,13.90
2018-06-11T00:46:35.220Z,13.90
2018-06-11T00:47:40.765Z,13.90
2018-06-11T00:48:46.153Z,13.90
2018-06-11T00:49:51.583Z,13.90
2018-06-11T00:50:57.154Z,13.90
2018-06-11T00:52:02.545Z,13.90
2018-06-11T00:53:07.988Z,13.80
2018-06-11T00:54:13.401Z,13.90
2018-06-11T00:55:18.829Z,13.90
2018-06-11T00:56:24.289Z,13.80
2018-06-11T00:57:29.751Z,13.80
2018-06-11T00:58:35.461Z,13.80
2018-06-11T00:59:40.861Z,13.80
2018-06-11T01:00:46.305Z,13.80
2018-06-11T01:01:52.407Z,13.80
2018-06-11T01:02:57.808Z,13.80
2018-06-11T01:04:03.626Z,13.80
2018-06-11T01:05:09.042Z,13.70
2018-06-11T01:06:14.468Z,13.70
2018-06-11T01:07:19.998Z,13.70
2018-06-11T01:08:25.569Z,13.70
2018-06-11T01:09:30.970Z,13.60
2018-06-11T01:10:36.410Z,13.50
2018-06-11T01:11:41.807Z,13.50
2018-06-11T01:12:47.230Z,13.50
2018-06-11T01:14:57.725Z,13.50
2018-06-11T01:16:03.159Z,13.40
2018-06-11T01:17:08.563Z,13.40
2018-06-11T01:18:13.995Z,13.40
2018-06-11T01:20:24.527Z,13.30
2018-06-11T01:21:30.013Z,13.30
2018-06-11T01:22:35.475Z,13.30
2018-06-11T01:23:40.893Z,13.30
2018-06-11T01:24:46.305Z,13.40
2018-06-11T01:25:51.757Z,13.40
2018-06-11T01:26:57.184Z,13.30
2018-06-11T01:28:02.788Z,13.30
2018-06-11T01:29:08.196Z,13.30
2018-06-11T01:30:13.833Z,13.30
2018-06-11T01:31:19.441Z,13.20
2018-06-11T01:32:24.926Z,13.20
2018-06-11T01:33:30.367Z,13.20
2018-06-11T01:34:35.804Z,13.10
2018-06-11T01:35:41.336Z,13.20
2018-06-11T01:36:47.095Z,13.10
2018-06-11T01:37:52.534Z,13.10
2018-06-11T01:38:58.049Z,13.10
2018-06-11T01:40:03.528Z,13.20
2018-06-11T01:41:08.969Z,13.10
2018-06-11T01:42:14.452Z,13.10
2018-06-11T01:43:20.310Z,13.10
2018-06-11T01:44:25.738Z,13.10
2018-06-11T01:45:31.171Z,13.10
2018-06-11T01:46:36.657Z,13.10
2018-06-11T01:47:42.081Z,13.10
2018-06-11T01:48:47.718Z,13.00
2018-06-11T01:49:53.139Z,13.00
2018-06-11T01:50:58.553Z,12.90
2018-06-11T01:52:03.991Z,13.00
2018-06-11T01:53:09.471Z,12.90
2018-06-11T01:54:14.912Z,12.90
2018-06-11T01:55:20.359Z,12.90
2018-06-11T01:56:25.988Z,12.90
2018-06-11T01:57:31.468Z,12.90
2018-06-11T01:58:36.924Z,12.80
2018-06-11T01:59:42.340Z,12.80
2018-06-11T02:00:47.762Z,12.70
2018-06-11T02:01:54.726Z,12.70
2018-06-11T02:04:07.799Z,12.70
2018-06-11T02:05:13.229Z,12.60
2018-06-11T02:06:18.665Z,12.60
2018-06-11T02:07:24.110Z,12.60
2018-06-11T02:08:29.574Z,12.50
2018-06-11T02:09:35.098Z,12.50
2018-06-11T02:10:40.509Z,12.60
2018-06-11T02:11:45.933Z,12.60
2018-06-11T02:12:51.407Z,12.60
2018-06-11T02:13:56.827Z,12.60
2018-06-11T02:15:02.284Z,12.60
2018-06-11T02:16:08.021Z,12.60
2018-06-11T02:17:13.580Z,12.60
2018-06-11T02:18:19.026Z,12.60
2018-06-11T02:19:24.470Z,12.70
2018-06-11T02:20:30.008Z,12.60
2018-06-11T02:21:35.461Z,12.60
2018-06-11T02:22:40.937Z,12.70
2018-06-11T02:23:46.386Z,12.60
2018-06-11T02:24:51.816Z,12.60
2018-06-11T02:25:57.469Z,12.60
2018-06-11T02:27:02.907Z,12.70
2018-06-11T02:28:08.328Z,12.60
2018-06-11T02:29:13.820Z,12.60
2018-06-11T02:30:19.235Z,12.60
2018-06-11T02:31:24.865Z,12.60
2018-06-11T02:32:30.266Z,12.60
2018-06-11T02:33:35.686Z,12.60
2018-06-11T02:34:41.121Z,12.60
2018-06-11T02:36:51.655Z,12.50
2018-06-11T02:37:57.504Z,12.50
2018-06-11T02:39:02.945Z,12.50
2018-06-11T02:40:08.402Z,12.50
2018-06-11T02:41:13.865Z,12.50
2018-06-11T02:42:19.311Z,12.50
2018-06-11T02:43:24.909Z,12.40
2018-06-11T02:44:30.313Z,12.50
2018-06-11T02:45:35.770Z,12.40
2018-06-11T02:46:41.224Z,12.50
2018-06-11T02:47:46.633Z,12.50
2018-06-11T02:48:52.528Z,12.50
2018-06-11T02:49:57.957Z,12.50
2018-06-11T02:51:03.366Z,12.50
2018-06-11T02:52:08.764Z,12.40
2018-06-11T02:53:14.306Z,12.40
2018-06-11T02:54:19.760Z,12.30
2018-06-11T02:55:25.390Z,12.30
2018-06-11T02:57:35.913Z,12.30
2018-06-11T02:58:41.308Z,12.30
2018-06-11T02:59:46.820Z,12.20
2018-06-11T03:00:52.269Z,12.20
2018-06-11T03:01:57.705Z,12.20
2018-06-11T03:03:03.247Z,12.20
2018-06-11T03:04:08.661Z,12.20
2018-06-11T03:05:14.317Z,12.10
2018-06-11T03:06:19.741Z,12.10
2018-06-11T03:07:25.236Z,12.10
2018-06-11T03:08:30.649Z,12.20
2018-06-11T03:09:36.073Z,12.10
2018-06-11T03:10:41.698Z,12.10
2018-06-11T03:11:47.121Z,12.10
2018-06-11T03:12:52.634Z,12.10
2018-06-11T03:13:58.047Z,12.10
2018-06-11T03:15:03.497Z,12.10
2018-06-11T03:16:09.030Z,12.10
2018-06-11T03:17:14.451Z,12.00
2018-06-11T03:18:19.907Z,12.00
2018-06-11T03:19:25.309Z,12.00
2018-06-11T03:20:30.706Z,12.00
2018-06-11T03:21:36.121Z,12.00
2018-06-11T03:22:41.532Z,12.00
2018-06-11T03:23:47.309Z,12.00
2018-06-11T03:24:53.360Z,12.00
2018-06-11T03:25:58.834Z,12.00
2018-06-11T03:27:04.281Z,12.00
2018-06-11T03:28:09.970Z,12.00
2018-06-11T03:29:15.406Z,11.90
2018-06-11T03:30:20.797Z,11.90
2018-06-11T03:31:26.400Z,11.90
2018-06-11T03:32:31.809Z,12.00
2018-06-11T03:33:37.221Z,12.00
2018-06-11T03:34:42.629Z,12.00
2018-06-11T03:35:48.042Z,12.00
2018-06-11T03:36:53.461Z,12.10
2018-06-11T03:37:58.914Z,12.10
2018-06-11T03:39:06.737Z,12.10
2018-06-11T03:40:12.196Z,12.10
2018-06-11T03:41:17.612Z,12.20
2018-06-11T03:42:23.061Z,12.20
2018-06-11T03:43:28.457Z,12.20
2018-06-11T03:44:33.975Z,12.20
2018-06-11T03:45:39.479Z,12.20
2018-06-11T03:46:44.917Z,12.20
2018-06-11T03:47:50.341Z,12.40
2018-06-11T03:48:55.775Z,12.40
2018-06-11T03:50:01.271Z,12.40
2018-06-11T03:51:06.977Z,12.40
2018-06-11T03:52:12.401Z,12.40
2018-06-11T03:53:17.841Z,12.40
2018-06-11T03:54:23.252Z,12.50
2018-06-11T03:55:28.668Z,12.50
2018-06-11T03:56:34.112Z,12.60
2018-06-11T03:57:39.510Z,12.60
2018-06-11T03:58:44.962Z,12.60
2018-06-11T03:59:50.602Z,12.70
2018-06-11T04:00:56.174Z,12.70
2018-06-11T04:02:01.655Z,12.70
2018-06-11T04:03:07.133Z,12.70
2018-06-11T04:04:12.646Z,12.70
2018-06-11T04:05:18.346Z,12.70
2018-06-11T04:06:23.825Z,12.70
2018-06-11T04:07:29.333Z,12.70
2018-06-11T04:08:34.759Z,12.70
2018-06-11T04:09:40.200Z,12.80
2018-06-11T04:10:45.733Z,12.70
2018-06-11T04:11:51.168Z,12.80
2018-06-11T04:12:56.695Z,12.80
2018-06-11T04:14:02.166Z,12.80
2018-06-11T04:15:07.791Z,12.80
2018-06-11T04:16:13.740Z,12.70
2018-06-11T04:17:19.190Z,12.70
2018-06-11T04:18:24.793Z,12.70
2018-06-11T04:19:30.228Z,12.70
2018-06-11T04:20:35.634Z,12.70
2018-06-11T04:21:41.101Z,12.60
2018-06-11T04:22:47.095Z,12.60
2018-06-11T04:23:52.595Z,12.70
2018-06-11T04:24:58.001Z,12.70
2018-06-11T04:26:03.445Z,12.80
2018-06-11T04:27:08.975Z,12.80
2018-06-11T04:28:14.410Z,12.80
2018-06-11T04:29:19.809Z,12.90
2018-06-11T04:30:25.950Z,13.00
2018-06-11T04:31:31.453Z,13.10
2018-06-11T04:32:36.894Z,13.10
2018-06-11T04:33:42.316Z,13.10
2018-06-11T04:34:47.734Z,13.10
2018-06-11T04:35:53.198Z,13.10
2018-06-11T04:36:58.677Z,13.10
2018-06-11T04:38:04.128Z,13.10
2018-06-11T04:39:09.725Z,13.20
2018-06-11T04:40:15.173Z,13.30
2018-06-11T04:41:20.559Z,13.40
2018-06-11T04:42:26.022Z,13.50
2018-06-11T04:43:31.660Z,13.50
2018-06-11T04:44:37.066Z,13.60
2018-06-11T04:45:42.508Z,13.70
2018-06-11T04:46:47.917Z,13.70
2018-06-11T04:47:53.602Z,13.80
2018-06-11T04:48:59.100Z,13.90
2018-06-11T04:50:04.610Z,13.90
2018-06-11T04:51:10.054Z,14.00
2018-06-11T04:52:15.492Z,14.10
2018-06-11T04:53:20.904Z,14.10
2018-06-11T04:54:26.445Z,14.20
2018-06-11T04:55:31.861Z,14.30
2018-06-11T04:56:37.289Z,14.40
2018-06-11T04:57:42.686Z,14.40
2018-06-11T04:58:48.115Z,14.40
2018-06-11T04:59:54.077Z,14.50
2018-06-11T05:00:59.501Z,14.50
2018-06-11T05:02:04.949Z,14.70
2018-06-11T05:03:10.383Z,14.70
2018-06-11T05:04:15.867Z,14.70
2018-06-11T05:05:21.589Z,14.70
2018-06-11T05:06:27.055Z,14.80
2018-06-11T05:08:37.534Z,14.80
2018-06-11T05:09:42.928Z,14.80
2018-06-11T05:10:48.338Z,14.80
2018-06-11T05:11:53.741Z,14.80
2018-06-11T05:12:59.383Z,14.80
2018-06-11T05:14:04.902Z,14.80
2018-06-11T05:15:10.285Z,14.90
2018-06-11T05:17:21.084Z,15.00
2018-06-11T05:18:26.549Z,15.00
2018-06-11T05:19:32.022Z,15.10
2018-06-11T05:20:37.894Z,15.10
2018-06-11T05:22:48.328Z,15.10
2018-06-11T05:23:53.775Z,15.20
2018-06-11T05:24:59.204Z,15.30
2018-06-11T05:26:04.667Z,15.30
2018-06-11T05:27:10.279Z,15.30
2018-06-11T05:28:15.701Z,15.30
2018-06-11T05:29:21.137Z,15.40
2018-06-11T05:30:26.577Z,15.40
2018-06-11T05:31:32.004Z,15.40
2018-06-11T05:32:37.580Z,15.40
2018-06-11T05:33:43.062Z,15.50
2018-06-11T05:34:48.476Z,15.60
2018-06-11T05:35:53.906Z,15.60
2018-06-11T05:36:59.339Z,15.70
2018-06-11T05:38:04.901Z,15.80
2018-06-11T05:39:10.450Z,15.90
2018-06-11T05:40:15.939Z,16.00
2018-06-11T05:41:21.329Z,16.00
2018-06-11T05:42:26.775Z,16.00
2018-06-11T05:43:32.379Z,16.00
2018-06-11T05:44:37.811Z,16.00
2018-06-11T05:45:43.277Z,15.90
2018-06-11T05:46:48.689Z,15.90
2018-06-11T05:47:54.155Z,15.90
2018-06-11T05:48:59.980Z,16.00
2018-06-11T05:50:05.481Z,16.00
2018-06-11T05:51:10.898Z,16.00
2018-06-11T05:52:16.306Z,16.00
2018-06-11T05:53:21.745Z,15.90
2018-06-11T05:54:27.203Z,15.90
2018-06-11T05:55:32.647Z,15.90
2018-06-11T05:56:38.076Z,15.90
2018-06-11T05:57:43.750Z,15.90
2018-06-11T05:59:54.282Z,16.00
2018-06-11T06:00:59.689Z,15.90
2018-06-11T06:02:05.534Z,15.90
2018-06-11T06:03:10.958Z,16.00
2018-06-11T06:04:16.721Z,15.90
2018-06-11T06:05:22.153Z,16.00
2018-06-11T06:06:27.657Z,16.00
2018-06-11T06:07:33.649Z,16.00
2018-06-11T06:08:39.163Z,16.00
2018-06-11T06:10:52.096Z,16.10
2018-06-11T06:11:58.735Z,16.10
2018-06-11T06:13:04.436Z,16.10
2018-06-11T06:14:09.909Z,16.10
2018-06-11T06:15:15.302Z,16.10
2018-06-11T06:16:21.181Z,16.10
2018-06-11T06:17:27.079Z,16.10
2018-06-11T06:18:32.656Z,16.00
2018-06-11T06:19:38.093Z,16.10
2018-06-11T06:20:43.529Z,16.10
2018-06-11T06:21:48.955Z,16.10
2018-06-11T06:22:54.409Z,16.10
2018-06-11T06:23:59.884Z,16.20
2018-06-11T06:25:05.345Z,16.20
2018-06-11T06:26:10.777Z,16.30
2018-06-11T06:27:16.233Z,16.40
2018-06-11T06:28:21.661Z,16.40
2018-06-11T06:29:27.177Z,16.40
2018-06-11T06:30:33.093Z,16.40
2018-06-11T06:31:38.503Z,16.40
2018-06-11T06:32:44.034Z,16.50
2018-06-11T06:33:49.633Z,16.60
2018-06-11T06:34:55.093Z,16.70
2018-06-11T06:36:00.501Z,16.80
2018-06-11T06:37:06.336Z,16.80
2018-06-11T06:38:11.838Z,16.90
2018-06-11T06:39:17.329Z,17.10
2018-06-11T06:40:22.770Z,17.10
2018-06-11T06:41:28.171Z,17.10
2018-06-11T06:42:33.582Z,17.00
2018-06-11T06:43:38.983Z,17.10
2018-06-11T06:44:44.769Z,17.10
2018-06-11T06:45:50.193Z,17.30
2018-06-11T06:46:55.642Z,17.30
2018-06-11T06:48:01.050Z,17.40
2018-06-11T06:49:06.472Z,17.50
2018-06-11T06:50:11.889Z,17.50
2018-06-11T06:51:17.284Z,17.50
2018-06-11T06:52:22.758Z,17.50
2018-06-11T06:53:28.147Z,17.60
2018-06-11T06:54:33.537Z,17.70
2018-06-11T06:55:38.949Z,17.60
2018-06-11T06:56:44.365Z,17.60
2018-06-11T06:57:49.846Z,17.70
2018-06-11T06:58:55.280Z,17.70
2018-06-11T07:00:00.689Z,17.60
2018-06-11T07:01:06.200Z,17.60
2018-06-11T07:02:11.609Z,17.60
2018-06-11T07:03:17.044Z,17.50
2018-06-11T07:04:22.579Z,17.50
2018-06-11T07:05:28.042Z,17.40
2018-06-11T07:06:33.703Z,17.30
2018-06-11T07:07:39.289Z,17.30
2018-06-11T07:08:44.697Z,17.30
2018-06-11T07:09:50.123Z,17.30
2018-06-11T07:10:55.525Z,17.30
2018-06-11T07:12:03.207Z,17.20
2018-06-11T07:13:09.206Z,17.20
2018-06-11T07:14:14.901Z,17.30
2018-06-11T07:15:20.309Z,17.40
2018-06-11T07:16:25.769Z,17.50
2018-06-11T07:17:31.210Z,17.50
2018-06-11T07:18:36.610Z,17.60
2018-06-11T07:19:42.101Z,17.60
2018-06-11T07:20:47.511Z,17.50
2018-06-11T07:21:53.110Z,17.50
2018-06-11T07:22:58.529Z,17.50
2018-06-11T07:24:04.045Z,17.50
2018-06-11T07:25:09.562Z,17.60
2018-06-11T07:26:15.074Z,17.50
2018-06-11T07:27:20.625Z,17.50
2018-06-11T07:28:26.082Z,17.50
2018-06-11T07:29:31.519Z,17.50
2018-06-11T07:30:36.942Z,17.50
2018-06-11T07:31:42.350Z,17.50
2018-06-11T07:32:47.825Z,17.60
2018-06-11T07:33:53.279Z,17.40
2018-06-11T07:34:58.682Z,17.50
2018-06-11T07:36:04.098Z,17.50
2018-06-11T07:37:09.502Z,17.50
2018-06-11T07:38:14.918Z,17.50
2018-06-11T07:39:20.325Z,17.40
2018-06-11T07:40:25.742Z,17.30
2018-06-11T07:41:31.154Z,17.30
2018-06-11T07:42:36.691Z,17.50
2018-06-11T07:43:42.169Z,17.50
2018-06-11T07:44:47.583Z,17.70
2018-06-11T07:45:56.300Z,17.80
2018-06-11T07:47:03.958Z,17.90
2018-06-11T07:48:11.701Z,18.10
2018-06-11T07:49:18.095Z,18.20
2018-06-11T07:50:23.658Z,18.30
2018-06-11T07:51:29.086Z,18.30
2018-06-11T07:52:34.494Z,18.40
2018-06-11T07:53:39.957Z,18.50
2018-06-11T07:54:45.366Z,18.60
2018-06-11T07:55:50.818Z,18.60
2018-06-11T07:56:56.245Z,18.60
2018-06-11T07:58:01.679Z,18.60
2018-06-11T07:59:07.265Z,18.60
2018-06-11T08:00:12.674Z,18.60
2018-06-11T08:01:18.133Z,18.60
2018-06-11T08:02:23.502Z,18.60
2018-06-11T08:03:29.233Z,18.60
2018-06-11T08:04:34.785Z,18.50
2018-06-11T08:05:40.297Z,18.40
2018-06-11T08:06:45.722Z,18.30
2018-06-11T08:07:51.165Z,18.30
2018-06-11T08:08:56.677Z,18.20
2018-06-11T08:10:02.113Z,18.30
2018-06-11T08:11:07.528Z,18.40
2018-06-11T08:12:12.936Z,18.50
2018-06-11T08:13:18.328Z,18.60
2018-06-11T08:14:23.767Z,18.60
2018-06-11T08:15:29.438Z,18.70
2018-06-11T08:16:34.882Z,18.70
2018-06-11T08:17:41.068Z,18.70
2018-06-11T08:18:46.490Z,18.70
2018-06-11T08:19:51.930Z,18.70
2018-06-11T08:20:57.326Z,18.80
2018-06-11T08:22:02.725Z,18.90
2018-06-11T08:23:08.673Z,19.00
2018-06-11T08:24:14.133Z,19.00
2018-06-11T08:25:19.553Z,19.00
2018-06-11T08:26:24.970Z,19.00
2018-06-11T08:27:30.425Z,18.90
2018-06-11T08:28:35.783Z,18.80
2018-06-11T08:29:41.201Z,18.70
2018-06-11T08:30:46.621Z,18.70
2018-06-11T08:31:52.080Z,18.60
2018-06-11T08:32:57.505Z,18.70
2018-06-11T08:34:02.917Z,18.70
2018-06-11T08:35:08.370Z,18.80
2018-06-11T08:36:13.778Z,18.70
2018-06-11T08:37:19.205Z,18.60
2018-06-11T08:38:24.618Z,18.50
2018-06-11T08:39:30.035Z,18.40
2018-06-11T08:40:35.424Z,18.30
2018-06-11T08:41:40.826Z,18.30
2018-06-11T08:42:46.286Z,18.30
2018-06-11T08:43:51.713Z,18.30
2018-06-11T08:44:57.324Z,18.20
2018-06-11T08:46:02.781Z,18.20
2018-06-11T08:47:08.212Z,18.30
2018-06-11T08:48:13.637Z,18.30
2018-06-11T08:49:19.029Z,18.30
2018-06-11T08:50:24.670Z,18.40
2018-06-11T08:51:30.154Z,18.60
2018-06-11T08:52:35.625Z,18.70
2018-06-11T08:53:41.078Z,18.70
2018-06-11T08:54:46.605Z,18.80
2018-06-11T08:55:52.044Z,18.80
2018-06-11T08:56:57.465Z,18.90
2018-06-11T08:58:02.981Z,18.80
2018-06-11T08:59:08.366Z,18.80
2018-06-11T09:00:13.816Z,18.80
2018-06-11T09:01:19.234Z,18.80
2018-06-11T09:02:24.673Z,18.90
2018-06-11T09:03:30.162Z,19.00
2018-06-11T09:04:35.654Z,18.90
2018-06-11T09:05:41.068Z,19.00
2018-06-11T09:06:46.969Z,19.10
2018-06-11T09:07:52.394Z,19.20
2018-06-11T09:08:57.838Z,19.40
2018-06-11T09:10:03.313Z,19.60
2018-06-11T09:11:08.761Z,19.60
2018-06-11T09:12:14.274Z,19.70
2018-06-11T09:13:19.694Z,19.90
2018-06-11T09:14:25.146Z,19.80
2018-06-11T09:15:30.541Z,19.90
2018-06-11T09:16:36.032Z,20.10
2018-06-11T09:17:41.474Z,20.10
2018-06-11T09:18:47.003Z,20.10
2018-06-11T09:19:52.394Z,20.20
2018-06-11T09:20:57.822Z,20.30
2018-06-11T09:22:03.745Z,20.30
2018-06-11T09:23:09.143Z,20.20
2018-06-11T09:24:14.551Z,20.00
2018-06-11T09:25:19.945Z,19.90
2018-06-11T09:26:25.349Z,19.80
2018-06-11T09:27:31.055Z,19.80
2018-06-11T09:28:36.471Z,19.80
2018-06-11T09:29:41.945Z,19.80
2018-06-11T09:30:47.388Z,19.80
2018-06-11T09:31:52.829Z,19.90
2018-06-11T09:32:58.378Z,19.90
2018-06-11T09:34:03.795Z,19.90
2018-06-11T09:35:09.314Z,19.90
2018-06-11T09:36:14.736Z,19.90
2018-06-11T09:37:20.158Z,19.90
2018-06-11T09:38:25.767Z,19.90
2018-06-11T09:39:31.164Z,19.90
2018-06-11T09:40:36.586Z,19.90
2018-06-11T09:42:47.082Z,20.00
2018-06-11T09:43:52.859Z,20.10
2018-06-11T09:44:58.139Z,20.00
2018-06-11T09:46:03.589Z,19.90
2018-06-11T09:47:09.046Z,19.90
2018-06-11T09:48:14.430Z,19.90
2018-06-11T09:49:19.855Z,20.00
2018-06-11T09:50:25.640Z,20.10
2018-06-11T09:51:31.204Z,20.30
2018-06-11T09:52:36.616Z,20.40
2018-06-11T09:53:42.012Z,20.60
2018-06-11T09:54:47.421Z,20.70
2018-06-11T09:55:53.113Z,20.80
2018-06-11T09:56:58.932Z,21.00
2018-06-11T09:58:04.533Z,20.90
2018-06-11T09:59:09.966Z,21.00
2018-06-11T10:00:20.583Z,20.90
2018-06-11T10:01:25.978Z,20.90
2018-06-11T10:02:31.438Z,20.90
2018-06-11T10:03:36.914Z,21.00
2018-06-11T10:04:42.354Z,21.10
2018-06-11T10:05:47.750Z,21.30
2018-06-11T10:06:53.533Z,21.40
2018-06-11T10:07:58.931Z,21.60
2018-06-11T10:09:06.482Z,21.60
2018-06-11T10:10:11.900Z,21.60
2018-06-11T10:11:17.355Z,21.60
2018-06-11T10:12:22.904Z,21.60
2018-06-11T10:13:28.353Z,21.50
2018-06-11T10:14:33.786Z,21.40
2018-06-11T10:15:39.172Z,21.30
2018-06-11T10:16:44.586Z,21.20
2018-06-11T10:17:49.994Z,21.20
2018-06-11T10:18:55.525Z,21.20
2018-06-11T10:20:00.949Z,21.20
2018-06-11T10:21:06.802Z,21.30
2018-06-11T10:22:12.213Z,21.40
2018-06-11T10:23:17.641Z,21.30
2018-06-11T10:24:23.105Z,21.40
2018-06-11T10:25:28.520Z,21.50
2018-06-11T10:26:33.969Z,21.60
2018-06-11T10:27:39.637Z,21.80
2018-06-11T10:28:45.280Z,21.60
2018-06-11T10:29:50.750Z,21.70
2018-06-11T10:30:56.466Z,21.70
2018-06-11T10:32:01.921Z,21.70
2018-06-11T10:33:07.604Z,21.80
2018-06-11T10:34:13.089Z,21.80
2018-06-11T10:35:18.725Z,21.70
2018-06-11T10:36:24.421Z,21.50
2018-06-11T10:37:29.874Z,21.30
2018-06-11T10:38:36.228Z,21.10
2018-06-11T10:39:41.770Z,21.00
2018-06-11T10:40:47.414Z,21.00
2018-06-11T10:41:53.171Z,21.00
2018-06-11T10:42:58.869Z,20.90
2018-06-11T10:44:04.404Z,20.90
2018-06-11T10:45:10.091Z,21.00
2018-06-11T10:46:15.513Z,21.00
2018-06-11T10:47:21.486Z,21.00
2018-06-11T10:48:27.149Z,21.10
2018-06-11T10:49:32.558Z,21.20
2018-06-11T10:50:37.988Z,21.20
2018-06-11T10:51:43.541Z,21.30
2018-06-11T10:52:49.112Z,21.30
2018-06-11T10:53:54.806Z,21.50
2018-06-11T10:55:00.404Z,21.60
2018-06-11T10:56:06.007Z,21.70
2018-06-11T10:57:11.920Z,21.80
2018-06-11T10:58:17.499Z,21.80
2018-06-11T10:59:23.574Z,21.80
2018-06-11T11:00:29.254Z,21.70
2018-06-11T11:01:34.766Z,21.70
2018-06-11T11:02:40.178Z,21.80
2018-06-11T11:03:45.840Z,21.80
2018-06-11T11:04:51.322Z,21.80
2018-06-11T11:05:56.995Z,21.70
2018-06-11T11:07:02.414Z,21.70
2018-06-11T11:08:21.756Z,21.70
2018-06-11T11:09:27.326Z,21.60
2018-06-11T11:10:32.825Z,21.30
2018-06-11T11:11:38.241Z,21.20
2018-06-11T11:12:43.672Z,21.20
2018-06-11T11:13:50.115Z,21.30
2018-06-11T11:14:55.615Z,21.30
2018-06-11T11:16:01.225Z,21.30
2018-06-11T11:17:06.738Z,21.20
2018-06-11T11:18:12.223Z,21.30
2018-06-11T11:19:18.255Z,21.40
2018-06-11T11:20:23.697Z,21.60
2018-06-11T11:21:29.416Z,21.80
2018-06-11T11:22:34.994Z,21.90
2018-06-11T11:23:40.481Z,22.10
2018-06-11T11:24:46.050Z,22.10
2018-06-11T11:25:51.737Z,22.10
2018-06-11T11:26:57.270Z,22.10
2018-06-11T11:28:03.258Z,22.20
2018-06-11T11:29:08.738Z,22.20
2018-06-11T11:30:14.377Z,22.20
2018-06-11T11:31:19.880Z,22.20
2018-06-11T11:32:25.382Z,22.10
2018-06-11T11:33:31.426Z,22.10
2018-06-11T11:34:37.050Z,22.20
2018-06-11T11:35:42.449Z,22.10
2018-06-11T11:36:48.281Z,22.00
2018-06-11T11:37:53.813Z,22.00
2018-06-11T11:38:59.472Z,22.10
2018-06-11T11:40:05.050Z,22.20
2018-06-11T11:41:10.694Z,22.30
2018-06-11T11:42:16.373Z,22.30
2018-06-11T11:43:21.942Z,22.30
2018-06-11T11:44:27.562Z,22.30
2018-06-11T11:45:32.958Z,22.40
2018-06-11T11:46:38.346Z,22.50
2018-06-11T11:47:43.745Z,22.50
2018-06-11T11:48:50.313Z,22.50
2018-06-11T11:49:56.337Z,22.30
2018-06-11T11:51:01.755Z,22.20
2018-06-11T11:52:07.245Z,21.90
2018-06-11T11:53:12.613Z,21.80
2018-06-11T11:54:18.025Z,21.90
2018-06-11T11:55:23.902Z,21.80
2018-06-11T11:56:29.526Z,21.80
2018-06-11T11:57:35.021Z,21.90
2018-06-11T11:59:45.934Z,21.90
2018-06-11T12:00:52.397Z,22.00
2018-06-11T12:02:00.275Z,22.10
2018-06-11T12:03:06.468Z,22.20
2018-06-11T12:04:13.967Z,22.20
2018-06-11T12:05:19.786Z,22.20
2018-06-11T12:06:30.755Z,22.30
2018-06-11T12:07:37.156Z,22.30
2018-06-11T12:08:42.585Z,22.40
2018-06-11T12:09:48.001Z,22.40
2018-06-11T12:10:53.682Z,22.50
2018-06-11T12:11:59.261Z,22.60
2018-06-11T12:13:04.801Z,22.70
2018-06-11T12:14:10.530Z,22.70
2018-06-11T12:15:16.045Z,22.50
2018-06-11T12:16:21.727Z,22.50
2018-06-11T12:17:27.422Z,22.50
2018-06-11T12:18:32.898Z,22.50
2018-06-11T12:19:38.465Z,22.60
2018-06-11T12:20:43.979Z,22.50
2018-06-11T12:21:49.557Z,22.30
2018-06-11T12:22:55.026Z,22.20
2018-06-11T12:24:00.457Z,22.20
2018-06-11T12:25:06.350Z,22.30
2018-06-11T12:26:11.995Z,22.30
2018-06-11T12:27:17.388Z,22.20
2018-06-11T12:28:23.037Z,22.30
2018-06-11T12:29:28.448Z,22.30
2018-06-11T12:30:34.077Z,22.20
2018-06-11T12:31:40.181Z,22.20
2018-06-11T12:32:45.583Z,22.30
2018-06-11T12:33:50.982Z,22.30
2018-06-11T12:34:56.594Z,22.30
2018-06-11T12:36:02.035Z,22.30
2018-06-11T12:37:07.493Z,22.20
2018-06-11T12:38:12.909Z,22.10
2018-06-11T12:39:19.583Z,22.00
2018-06-11T12:40:26.010Z,22.10
2018-06-11T12:41:32.880Z,22.00
2018-06-11T12:42:38.346Z,22.20
2018-06-11T12:43:43.751Z,22.30
2018-06-11T12:44:49.474Z,22.40
2018-06-11T12:45:55.082Z,22.40
2018-06-11T12:47:00.905Z,22.30
2018-06-11T12:48:06.534Z,22.20
2018-06-11T12:49:11.969Z,22.30
2018-06-11T12:50:17.402Z,22.30
2018-06-11T12:51:22.809Z,22.50
2018-06-11T12:52:28.665Z,22.50
2018-06-11T12:53:34.262Z,22.50
2018-06-11T12:54:39.821Z,22.70
2018-06-11T12:55:45.431Z,22.70
2018-06-11T12:56:51.025Z,22.80
2018-06-11T12:57:57.454Z,22.80
2018-06-11T12:59:02.877Z,22.70
2018-06-11T13:00:08.486Z,22.70
2018-06-11T13:01:14.065Z,22.60
2018-06-11T13:02:19.665Z,22.60
2018-06-11T13:03:25.228Z,22.50
2018-06-11T13:04:30.710Z,22.40
2018-06-11T13:05:36.181Z,22.50
2018-06-11T13:06:41.881Z,22.50
2018-06-11T13:07:47.557Z,22.50
2018-06-11T13:08:53.437Z,22.60
2018-06-11T13:09:59.049Z,22.70
2018-06-11T13:11:04.659Z,22.80
2018-06-11T13:12:10.277Z,22.80
2018-06-11T13:13:15.911Z,22.70
2018-06-11T13:14:21.608Z,22.60
2018-06-11T13:15:27.217Z,22.50
2018-06-11T13:16:32.864Z,22.50
2018-06-11T13:17:38.303Z,22.60
2018-06-11T13:18:44.041Z,22.70
2018-06-11T13:19:49.566Z,22.60
2018-06-11T13:20:55.495Z,22.60
2018-06-11T13:22:01.031Z,22.60
2018-06-11T13:23:06.891Z,22.50
2018-06-11T13:24:12.342Z,22.50
2018-06-11T13:25:17.726Z,22.50
2018-06-11T13:26:23.348Z,22.50
2018-06-11T13:27:28.837Z,22.30
2018-06-11T13:28:34.467Z,22.30
2018-06-11T13:30:45.541Z,22.20
2018-06-11T13:31:51.110Z,22.20
2018-06-11T13:32:56.693Z,22.20
2018-06-11T13:34:02.126Z,22.50
2018-06-11T13:35:07.802Z,22.50
2018-06-11T13:36:13.353Z,22.50
2018-06-11T13:37:19.101Z,22.50
2018-06-11T13:38:24.777Z,22.50
2018-06-11T13:39:30.925Z,22.50
2018-06-11T13:40:36.361Z,22.40
2018-06-11T13:41:41.816Z,22.50
2018-06-11T13:42:47.345Z,22.50
2018-06-11T13:43:52.808Z,22.70
2018-06-11T13:44:58.612Z,22.70
2018-06-11T13:46:04.109Z,22.70
2018-06-11T13:47:09.853Z,22.60
2018-06-11T13:48:15.693Z,22.60
2018-06-11T13:49:21.673Z,22.50
2018-06-11T13:50:27.177Z,22.60
2018-06-11T13:51:32.767Z,22.70
2018-06-11T13:52:38.364Z,22.80
2018-06-11T13:53:43.825Z,22.90
2018-06-11T13:54:49.309Z,22.90
2018-06-11T13:55:55.341Z,22.90
2018-06-11T13:57:01.223Z,22.80
2018-06-11T13:58:06.789Z,22.80
2018-06-11T13:59:12.460Z,22.90
2018-06-11T14:00:17.925Z,22.90
2018-06-11T14:01:23.961Z,23.00
2018-06-11T14:02:29.642Z,22.90
2018-06-11T14:03:35.103Z,22.90
2018-06-11T14:04:40.493Z,23.00
2018-06-11T14:05:46.011Z,23.00
2018-06-11T14:06:51.795Z,22.80
2018-06-11T14:07:57.194Z,22.70
2018-06-11T14:09:02.679Z,22.80
2018-06-11T14:10:08.086Z,22.80
2018-06-11T14:11:13.493Z,22.90
2018-06-11T14:12:19.082Z,23.00
2018-06-11T14:13:24.565Z,23.00
2018-06-11T14:14:30.089Z,23.10
2018-06-11T14:15:35.482Z,22.90
2018-06-11T14:16:40.915Z,22.90
2018-06-11T14:17:46.688Z,23.00
2018-06-11T14:18:52.157Z,23.00
2018-06-11T14:19:57.557Z,23.00